sensor_id;sensor_type;location;lat;lon;timestamp;P1;P2;P0
73973;PMS5003;62336;-26.094;27.994;2023-05-10T00:00:29;43;39;
73973;PMS5003;62336;-26.094;27.994;2023-05-10T00:02:55;37;37;
73973;PMS5003;62336;-26.094;27.994;2023-05-10T00:05:20;47;45;
73973;PMS5003;62336;-26.094;27.994;2023-05-10T00:07:46;42;40;
73973;PMS5003;62336;-26.094;27.994;2023-05-10T00:10:11;41;39;
73973;PMS5003;62336;-26.094;27.994;2023-05-10T00:12:36;39;38;
73973;PMS5003;62336;-26.094;27.994;2023-05-10T00:15:02;42;41;
73973;PMS5003;62336;-26.094;27.994;2023-05-10T00:17:26;40;37;
73973;PMS5003;62336;-26.094;27.994;2023-05-10T00:19:52;47;44;
73973;PMS5003;62336;-26.094;27.994;2023-05-10T00:22:18;42;35;
73973;PMS5003;62336;-26.094;27.994;2023-05-10T00:24:44;37;35;
73973;PMS5003;62336;-26.094;27.994;2023-05-10T00:27:09;42;40;
73973;PMS5003;62336;-26.094;27.994;2023-05-10T00:29:35;41;38;
73973;PMS5003;62336;-26.094;27.994;2023-05-10T00:32:00;51;49;
73973;PMS5003;62336;-26.094;27.994;2023-05-10T00:34:26;49;46;
73973;PMS5003;62336;-26.094;27.994;2023-05-10T00:36:52;43;41;
73973;PMS5003;62336;-26.094;27.994;2023-05-10T00:39:17;45;41;
73973;PMS5003;62336;-26.094;27.994;2023-05-10T00:41:42;40;38;
73973;PMS5003;62336;-26.094;27.994;2023-05-10T00:44:08;40;39;
73973;PMS5003;62336;-26.094;27.994;2023-05-10T00:46:33;46;42;
73973;PMS5003;62336;-26.094;27.994;2023-05-10T00:48:59;44;40;
73973;PMS5003;62336;-26.094;27.994;2023-05-10T00:51:24;44;40;
73973;PMS5003;62336;-26.094;27.994;2023-05-10T00:53:49;51;48;
73973;PMS5003;62336;-26.094;27.994;2023-05-10T00:56:14;46;44;
73973;PMS5003;62336;-26.094;27.994;2023-05-10T00:58:40;48;45;
73973;PMS5003;62336;-26.094;27.994;2023-05-10T01:01:06;40;38;
73973;PMS5003;62336;-26.094;27.994;2023-05-10T01:03:30;40;39;
73973;PMS5003;62336;-26.094;27.994;2023-05-10T01:05:56;51;49;
73973;PMS5003;62336;-26.094;27.994;2023-05-10T01:08:21;44;43;
73973;PMS5003;62336;-26.094;27.994;2023-05-10T01:10:46;43;38;
73973;PMS5003;62336;-26.094;27.994;2023-05-10T01:13:12;44;38;
73973;PMS5003;62336;-26.094;27.994;2023-05-10T01:15:37;43;40;
73973;PMS5003;62336;-26.094;27.994;2023-05-10T01:18:03;36;35;
73973;PMS5003;62336;-26.094;27.994;2023-05-10T01:20:34;40;35;
73973;PMS5003;62336;-26.094;27.994;2023-05-10T01:23:04;41;38;
73973;PMS5003;62336;-26.094;27.994;2023-05-10T01:25:23;44;40;
73973;PMS5003;62336;-26.094;27.994;2023-05-10T01:27:51;38;36;
73973;PMS5003;62336;-26.094;27.994;2023-05-10T01:32:36;43;42;
73973;PMS5003;62336;-26.094;27.994;2023-05-10T01:35:02;48;45;
73973;PMS5003;62336;-26.094;27.994;2023-05-10T01:37:28;35;32;
73973;PMS5003;62336;-26.094;27.994;2023-05-10T01:39:52;42;39;
73973;PMS5003;62336;-26.094;27.994;2023-05-10T01:42:17;35;34;
73973;PMS5003;62336;-26.094;27.994;2023-05-10T01:44:42;32;28;
73973;PMS5003;62336;-26.094;27.994;2023-05-10T01:47:10;46;44;
73973;PMS5003;62336;-26.094;27.994;2023-05-10T01:49:34;36;34;
73973;PMS5003;62336;-26.094;27.994;2023-05-10T01:51:59;38;38;
73973;PMS5003;62336;-26.094;27.994;2023-05-10T01:54:23;31;29;
73973;PMS5003;62336;-26.094;27.994;2023-05-10T01:56:50;53;51;
73973;PMS5003;62336;-26.094;27.994;2023-05-10T01:59:15;24;24;
73973;PMS5003;62336;-26.094;27.994;2023-05-10T02:01:40;33;32;
73973;PMS5003;62336;-26.094;27.994;2023-05-10T02:04:05;29;27;
73973;PMS5003;62336;-26.094;27.994;2023-05-10T02:06:30;28;26;
73973;PMS5003;62336;-26.094;27.994;2023-05-10T02:08:56;28;26;
73973;PMS5003;62336;-26.094;27.994;2023-05-10T02:11:22;39;36;
73973;PMS5003;62336;-26.094;27.994;2023-05-10T02:13:46;41;39;
73973;PMS5003;62336;-26.094;27.994;2023-05-10T02:16:12;56;50;
73973;PMS5003;62336;-26.094;27.994;2023-05-10T02:18:37;42;37;
73973;PMS5003;62336;-26.094;27.994;2023-05-10T02:21:02;54;52;
73973;PMS5003;62336;-26.094;27.994;2023-05-10T02:23:28;50;44;
73973;PMS5003;62336;-26.094;27.994;2023-05-10T02:25:53;41;40;
73973;PMS5003;62336;-26.094;27.994;2023-05-10T02:28:19;40;40;
73973;PMS5003;62336;-26.094;27.994;2023-05-10T02:30:44;38;34;
73973;PMS5003;62336;-26.094;27.994;2023-05-10T02:33:11;44;40;
73973;PMS5003;62336;-26.094;27.994;2023-05-10T02:35:35;55;51;
73973;PMS5003;62336;-26.094;27.994;2023-05-10T02:38:00;26;23;
73973;PMS5003;62336;-26.094;27.994;2023-05-10T02:40:26;53;51;
73973;PMS5003;62336;-26.094;27.994;2023-05-10T02:42:52;26;26;
73973;PMS5003;62336;-26.094;27.994;2023-05-10T02:45:19;24;24;
73973;PMS5003;62336;-26.094;27.994;2023-05-10T02:47:42;46;45;
73973;PMS5003;62336;-26.094;27.994;2023-05-10T02:50:08;36;34;
73973;PMS5003;62336;-26.094;27.994;2023-05-10T02:52:36;31;29;
73973;PMS5003;62336;-26.094;27.994;2023-05-10T02:55:00;48;46;
73973;PMS5003;62336;-26.094;27.994;2023-05-10T02:57:26;37;36;
73973;PMS5003;62336;-26.094;27.994;2023-05-10T02:59:50;33;30;
73973;PMS5003;62336;-26.094;27.994;2023-05-10T03:02:17;42;39;
73973;PMS5003;62336;-26.094;27.994;2023-05-10T03:04:41;29;27;
73973;PMS5003;62336;-26.094;27.994;2023-05-10T03:07:07;35;33;
73973;PMS5003;62336;-26.094;27.994;2023-05-10T03:09:33;43;40;
73973;PMS5003;62336;-26.094;27.994;2023-05-10T03:12:00;29;28;
73973;PMS5003;62336;-26.094;27.994;2023-05-10T03:14:29;34;34;
73973;PMS5003;62336;-26.094;27.994;2023-05-10T03:16:52;53;51;
73973;PMS5003;62336;-26.094;27.994;2023-05-10T03:19:17;34;32;
73973;PMS5003;62336;-26.094;27.994;2023-05-10T03:21:41;27;27;
73973;PMS5003;62336;-26.094;27.994;2023-05-10T03:24:07;30;28;
73973;PMS5003;62336;-26.094;27.994;2023-05-10T03:26:30;38;37;
73973;PMS5003;62336;-26.094;27.994;2023-05-10T03:28:56;24;23;
73973;PMS5003;62336;-26.094;27.994;2023-05-10T03:31:21;22;21;
73973;PMS5003;62336;-26.094;27.994;2023-05-10T03:33:47;43;42;
73973;PMS5003;62336;-26.094;27.994;2023-05-10T03:36:12;32;32;
73973;PMS5003;62336;-26.094;27.994;2023-05-10T03:38:37;45;44;
73973;PMS5003;62336;-26.094;27.994;2023-05-10T03:41:02;40;32;
73973;PMS5003;62336;-26.094;27.994;2023-05-10T03:43:28;20;20;
73973;PMS5003;62336;-26.094;27.994;2023-05-10T03:45:54;29;28;
73973;PMS5003;62336;-26.094;27.994;2023-05-10T03:48:18;32;31;
73973;PMS5003;62336;-26.094;27.994;2023-05-10T03:50:43;17;16;
73973;PMS5003;62336;-26.094;27.994;2023-05-10T03:53:08;16;16;
73973;PMS5003;62336;-26.094;27.994;2023-05-10T03:55:34;19;17;
73973;PMS5003;62336;-26.094;27.994;2023-05-10T03:57:59;18;17;
73973;PMS5003;62336;-26.094;27.994;2023-05-10T04:00:24;23;20;
73973;PMS5003;62336;-26.094;27.994;2023-05-10T04:02:49;19;18;
73973;PMS5003;62336;-26.094;27.994;2023-05-10T04:05:15;20;19;
73973;PMS5003;62336;-26.094;27.994;2023-05-10T04:07:40;18;18;
73973;PMS5003;62336;-26.094;27.994;2023-05-10T04:10:06;26;23;
73973;PMS5003;62336;-26.094;27.994;2023-05-10T04:12:31;23;22;
73973;PMS5003;62336;-26.094;27.994;2023-05-10T04:14:57;19;19;
73973;PMS5003;62336;-26.094;27.994;2023-05-10T04:17:22;18;18;
73973;PMS5003;62336;-26.094;27.994;2023-05-10T04:19:46;22;22;
73973;PMS5003;62336;-26.094;27.994;2023-05-10T04:22:12;20;18;
73973;PMS5003;62336;-26.094;27.994;2023-05-10T04:24:37;21;20;
73973;PMS5003;62336;-26.094;27.994;2023-05-10T04:27:03;25;23;
73973;PMS5003;62336;-26.094;27.994;2023-05-10T04:29:28;26;24;
73973;PMS5003;62336;-26.094;27.994;2023-05-10T04:31:53;22;21;
73973;PMS5003;62336;-26.094;27.994;2023-05-10T04:34:20;25;24;
73973;PMS5003;62336;-26.094;27.994;2023-05-10T04:36:44;23;23;
73973;PMS5003;62336;-26.094;27.994;2023-05-10T04:39:10;28;24;
73973;PMS5003;62336;-26.094;27.994;2023-05-10T04:41:35;32;29;
73973;PMS5003;62336;-26.094;27.994;2023-05-10T04:44:00;28;25;
73973;PMS5003;62336;-26.094;27.994;2023-05-10T04:46:26;25;23;
73973;PMS5003;62336;-26.094;27.994;2023-05-10T04:48:51;26;22;
73973;PMS5003;62336;-26.094;27.994;2023-05-10T04:51:17;26;22;
73973;PMS5003;62336;-26.094;27.994;2023-05-10T04:53:42;23;23;
73973;PMS5003;62336;-26.094;27.994;2023-05-10T04:56:08;29;26;
73973;PMS5003;62336;-26.094;27.994;2023-05-10T04:58:33;25;25;
73973;PMS5003;62336;-26.094;27.994;2023-05-10T05:03:24;30;27;
73973;PMS5003;62336;-26.094;27.994;2023-05-10T05:05:50;26;25;
73973;PMS5003;62336;-26.094;27.994;2023-05-10T05:08:15;27;27;
73973;PMS5003;62336;-26.094;27.994;2023-05-10T05:10:40;35;33;
73973;PMS5003;62336;-26.094;27.994;2023-05-10T05:13:06;32;29;
73973;PMS5003;62336;-26.094;27.994;2023-05-10T05:15:32;40;39;
73973;PMS5003;62336;-26.094;27.994;2023-05-10T05:17:57;31;26;
73973;PMS5003;62336;-26.094;27.994;2023-05-10T05:20:23;38;32;
73973;PMS5003;62336;-26.094;27.994;2023-05-10T05:22:48;41;34;
73973;PMS5003;62336;-26.094;27.994;2023-05-10T05:25:13;41;37;
73973;PMS5003;62336;-26.094;27.994;2023-05-10T05:27:39;37;37;
73973;PMS5003;62336;-26.094;27.994;2023-05-10T05:30:05;32;30;
73973;PMS5003;62336;-26.094;27.994;2023-05-10T05:32:30;33;30;
73973;PMS5003;62336;-26.094;27.994;2023-05-10T05:34:55;38;37;
73973;PMS5003;62336;-26.094;27.994;2023-05-10T05:37:20;31;27;
73973;PMS5003;62336;-26.094;27.994;2023-05-10T05:39:45;33;31;
73973;PMS5003;62336;-26.094;27.994;2023-05-10T05:42:11;24;22;
73973;PMS5003;62336;-26.094;27.994;2023-05-10T05:44:36;40;38;
73973;PMS5003;62336;-26.094;27.994;2023-05-10T05:47:01;37;36;
73973;PMS5003;62336;-26.094;27.994;2023-05-10T05:49:27;42;40;
73973;PMS5003;62336;-26.094;27.994;2023-05-10T05:51:53;50;45;
73973;PMS5003;62336;-26.094;27.994;2023-05-10T05:54:18;41;40;
73973;PMS5003;62336;-26.094;27.994;2023-05-10T05:56:43;45;39;
73973;PMS5003;62336;-26.094;27.994;2023-05-10T05:59:09;36;34;
73973;PMS5003;62336;-26.094;27.994;2023-05-10T06:01:34;45;38;
73973;PMS5003;62336;-26.094;27.994;2023-05-10T06:03:59;42;37;
73973;PMS5003;62336;-26.094;27.994;2023-05-10T06:06:25;37;35;
73973;PMS5003;62336;-26.094;27.994;2023-05-10T06:08:51;44;40;
73973;PMS5003;62336;-26.094;27.994;2023-05-10T06:11:16;34;33;
73973;PMS5003;62336;-26.094;27.994;2023-05-10T06:13:41;44;39;
73973;PMS5003;62336;-26.094;27.994;2023-05-10T06:16:06;37;36;
73973;PMS5003;62336;-26.094;27.994;2023-05-10T06:18:32;38;35;
73973;PMS5003;62336;-26.094;27.994;2023-05-10T06:20:57;40;38;
73973;PMS5003;62336;-26.094;27.994;2023-05-10T06:23:22;41;37;
73973;PMS5003;62336;-26.094;27.994;2023-05-10T06:25:48;44;42;
73973;PMS5003;62336;-26.094;27.994;2023-05-10T06:28:13;41;40;
73973;PMS5003;62336;-26.094;27.994;2023-05-10T06:30:39;50;45;
73973;PMS5003;62336;-26.094;27.994;2023-05-10T06:33:04;49;42;
73973;PMS5003;62336;-26.094;27.994;2023-05-10T06:35:30;45;43;
73973;PMS5003;62336;-26.094;27.994;2023-05-10T06:37:56;51;48;
73973;PMS5003;62336;-26.094;27.994;2023-05-10T06:40:21;45;43;
73973;PMS5003;62336;-26.094;27.994;2023-05-10T06:42:47;40;37;
73973;PMS5003;62336;-26.094;27.994;2023-05-10T06:45:12;42;38;
73973;PMS5003;62336;-26.094;27.994;2023-05-10T06:47:37;47;38;
73973;PMS5003;62336;-26.094;27.994;2023-05-10T06:50:03;32;31;
73973;PMS5003;62336;-26.094;27.994;2023-05-10T06:52:27;39;36;
73973;PMS5003;62336;-26.094;27.994;2023-05-10T06:54:53;30;28;
73973;PMS5003;62336;-26.094;27.994;2023-05-10T06:57:18;37;35;
73973;PMS5003;62336;-26.094;27.994;2023-05-10T06:59:43;31;29;
73973;PMS5003;62336;-26.094;27.994;2023-05-10T07:02:09;35;31;
73973;PMS5003;62336;-26.094;27.994;2023-05-10T07:04:34;39;35;
73973;PMS5003;62336;-26.094;27.994;2023-05-10T07:07:00;28;27;
73973;PMS5003;62336;-26.094;27.994;2023-05-10T07:09:26;30;29;
73973;PMS5003;62336;-26.094;27.994;2023-05-10T07:11:51;34;29;
73973;PMS5003;62336;-26.094;27.994;2023-05-10T07:14:17;24;22;
73973;PMS5003;62336;-26.094;27.994;2023-05-10T07:16:42;27;25;
73973;PMS5003;62336;-26.094;27.994;2023-05-10T07:19:08;27;23;
73973;PMS5003;62336;-26.094;27.994;2023-05-10T07:21:33;30;26;
73973;PMS5003;62336;-26.094;27.994;2023-05-10T07:23:58;29;28;
73973;PMS5003;62336;-26.094;27.994;2023-05-10T07:26:24;25;23;
73973;PMS5003;62336;-26.094;27.994;2023-05-10T07:28:49;31;25;
73973;PMS5003;62336;-26.094;27.994;2023-05-10T07:31:15;25;23;
73973;PMS5003;62336;-26.094;27.994;2023-05-10T07:33:41;27;25;
73973;PMS5003;62336;-26.094;27.994;2023-05-10T07:36:06;21;19;
73973;PMS5003;62336;-26.094;27.994;2023-05-10T07:38:31;31;28;
73973;PMS5003;62336;-26.094;27.994;2023-05-10T07:40:57;31;31;
73973;PMS5003;62336;-26.094;27.994;2023-05-10T07:43:22;27;26;
73973;PMS5003;62336;-26.094;27.994;2023-05-10T07:45:48;31;26;
73973;PMS5003;62336;-26.094;27.994;2023-05-10T07:48:13;27;26;
73973;PMS5003;62336;-26.094;27.994;2023-05-10T07:50:39;23;23;
73973;PMS5003;62336;-26.094;27.994;2023-05-10T07:53:04;28;27;
73973;PMS5003;62336;-26.094;27.994;2023-05-10T07:55:30;27;25;
73973;PMS5003;62336;-26.094;27.994;2023-05-10T07:57:55;28;27;
73973;PMS5003;62336;-26.094;27.994;2023-05-10T08:00:21;31;29;
73973;PMS5003;62336;-26.094;27.994;2023-05-10T08:02:46;32;29;
73973;PMS5003;62336;-26.094;27.994;2023-05-10T08:05:11;28;27;
73973;PMS5003;62336;-26.094;27.994;2023-05-10T08:07:38;24;24;
73973;PMS5003;62336;-26.094;27.994;2023-05-10T08:10:03;22;22;
73973;PMS5003;62336;-26.094;27.994;2023-05-10T08:12:28;25;23;
73973;PMS5003;62336;-26.094;27.994;2023-05-10T08:14:53;28;27;
73973;PMS5003;62336;-26.094;27.994;2023-05-10T08:17:19;32;30;
73973;PMS5003;62336;-26.094;27.994;2023-05-10T08:19:45;29;28;
73973;PMS5003;62336;-26.094;27.994;2023-05-10T08:22:10;32;31;
73973;PMS5003;62336;-26.094;27.994;2023-05-10T08:24:35;36;31;
73973;PMS5003;62336;-26.094;27.994;2023-05-10T08:27:00;26;24;
73973;PMS5003;62336;-26.094;27.994;2023-05-10T08:29:26;24;21;
73973;PMS5003;62336;-26.094;27.994;2023-05-10T08:31:51;23;23;
73973;PMS5003;62336;-26.094;27.994;2023-05-10T08:34:17;26;23;
73973;PMS5003;62336;-26.094;27.994;2023-05-10T08:36:43;21;20;
73973;PMS5003;62336;-26.094;27.994;2023-05-10T08:39:08;23;21;
73973;PMS5003;62336;-26.094;27.994;2023-05-10T08:41:33;23;21;
73973;PMS5003;62336;-26.094;27.994;2023-05-10T08:43:58;26;24;
73973;PMS5003;62336;-26.094;27.994;2023-05-10T08:46:25;19;18;
73973;PMS5003;62336;-26.094;27.994;2023-05-10T08:48:50;13;12;
73973;PMS5003;62336;-26.094;27.994;2023-05-10T08:51:17;9;8;
73973;PMS5003;62336;-26.094;27.994;2023-05-10T08:53:41;6;6;
73973;PMS5003;62336;-26.094;27.994;2023-05-10T08:56:07;7;7;
73973;PMS5003;62336;-26.094;27.994;2023-05-10T08:58:33;8;8;
73973;PMS5003;62336;-26.094;27.994;2023-05-10T09:00:59;6;6;
73973;PMS5003;62336;-26.094;27.994;2023-05-10T09:03:25;9;7;
73973;PMS5003;62336;-26.094;27.994;2023-05-10T09:05:50;6;6;
73973;PMS5003;62336;-26.094;27.994;2023-05-10T09:08:16;6;5;
73973;PMS5003;62336;-26.094;27.994;2023-05-10T09:10:42;9;8;
73973;PMS5003;62336;-26.094;27.994;2023-05-10T09:13:07;8;8;
73973;PMS5003;62336;-26.094;27.994;2023-05-10T09:15:33;7;7;
73973;PMS5003;62336;-26.094;27.994;2023-05-10T09:17:59;10;10;
73973;PMS5003;62336;-26.094;27.994;2023-05-10T09:20:25;8;8;
73973;PMS5003;62336;-26.094;27.994;2023-05-10T09:22:50;12;12;
73973;PMS5003;62336;-26.094;27.994;2023-05-10T09:25:16;13;13;
73973;PMS5003;62336;-26.094;27.994;2023-05-10T09:27:44;11;11;
73973;PMS5003;62336;-26.094;27.994;2023-05-10T09:30:08;13;10;
73973;PMS5003;62336;-26.094;27.994;2023-05-10T09:32:38;10;9;
73973;PMS5003;62336;-26.094;27.994;2023-05-10T09:34:58;10;10;
73973;PMS5003;62336;-26.094;27.994;2023-05-10T09:39:49;11;11;
73973;PMS5003;62336;-26.094;27.994;2023-05-10T09:42:17;12;12;
73973;PMS5003;62336;-26.094;27.994;2023-05-10T09:44:39;11;11;
73973;PMS5003;62336;-26.094;27.994;2023-05-10T09:47:05;14;12;
73973;PMS5003;62336;-26.094;27.994;2023-05-10T09:49:30;11;10;
73973;PMS5003;62336;-26.094;27.994;2023-05-10T09:52:01;10;10;
73973;PMS5003;62336;-26.094;27.994;2023-05-10T09:54:21;13;13;
73973;PMS5003;62336;-26.094;27.994;2023-05-10T09:56:47;11;10;
73973;PMS5003;62336;-26.094;27.994;2023-05-10T09:59:12;12;11;
73973;PMS5003;62336;-26.094;27.994;2023-05-10T10:01:38;13;13;
73973;PMS5003;62336;-26.094;27.994;2023-05-10T10:04:04;18;17;
73973;PMS5003;62336;-26.094;27.994;2023-05-10T10:06:28;20;19;
73973;PMS5003;62336;-26.094;27.994;2023-05-10T10:08:54;25;23;
73973;PMS5003;62336;-26.094;27.994;2023-05-10T10:11:19;23;21;
73973;PMS5003;62336;-26.094;27.994;2023-05-10T10:13:45;21;21;
73973;PMS5003;62336;-26.094;27.994;2023-05-10T10:16:10;20;19;
73973;PMS5003;62336;-26.094;27.994;2023-05-10T10:18:36;22;20;
73973;PMS5003;62336;-26.094;27.994;2023-05-10T10:21:00;19;19;
73973;PMS5003;62336;-26.094;27.994;2023-05-10T10:23:26;16;14;
73973;PMS5003;62336;-26.094;27.994;2023-05-10T10:25:51;12;12;
73973;PMS5003;62336;-26.094;27.994;2023-05-10T10:28:20;14;14;
73973;PMS5003;62336;-26.094;27.994;2023-05-10T10:30:43;11;11;
73973;PMS5003;62336;-26.094;27.994;2023-05-10T10:33:18;15;15;
73973;PMS5003;62336;-26.094;27.994;2023-05-10T10:35:33;13;12;
73973;PMS5003;62336;-26.094;27.994;2023-05-10T10:37:59;12;12;
73973;PMS5003;62336;-26.094;27.994;2023-05-10T10:40:25;12;12;
73973;PMS5003;62336;-26.094;27.994;2023-05-10T10:42:50;9;9;
73973;PMS5003;62336;-26.094;27.994;2023-05-10T10:45:16;13;12;
73973;PMS5003;62336;-26.094;27.994;2023-05-10T10:47:42;9;8;
73973;PMS5003;62336;-26.094;27.994;2023-05-10T10:50:08;11;10;
73973;PMS5003;62336;-26.094;27.994;2023-05-10T10:52:34;10;9;
73973;PMS5003;62336;-26.094;27.994;2023-05-10T10:55:00;8;8;
73973;PMS5003;62336;-26.094;27.994;2023-05-10T10:57:25;9;9;
73973;PMS5003;62336;-26.094;27.994;2023-05-10T10:59:50;12;11;
73973;PMS5003;62336;-26.094;27.994;2023-05-10T11:04:42;12;12;
73973;PMS5003;62336;-26.094;27.994;2023-05-10T11:07:16;10;10;
73973;PMS5003;62336;-26.094;27.994;2023-05-10T11:12:00;10;10;
73973;PMS5003;62336;-26.094;27.994;2023-05-10T11:14:26;15;14;
73973;PMS5003;62336;-26.094;27.994;2023-05-10T11:16:51;15;15;
73973;PMS5003;62336;-26.094;27.994;2023-05-10T11:19:18;15;14;
73973;PMS5003;62336;-26.094;27.994;2023-05-10T11:21:45;16;15;
73973;PMS5003;62336;-26.094;27.994;2023-05-10T11:24:12;17;17;
73973;PMS5003;62336;-26.094;27.994;2023-05-10T11:26:34;18;14;
73973;PMS5003;62336;-26.094;27.994;2023-05-10T11:28:58;15;14;
73973;PMS5003;62336;-26.094;27.994;2023-05-10T11:31:24;17;17;
73973;PMS5003;62336;-26.094;27.994;2023-05-10T11:33:50;17;17;
73973;PMS5003;62336;-26.094;27.994;2023-05-10T11:36:16;18;16;
73973;PMS5003;62336;-26.094;27.994;2023-05-10T11:38:41;24;22;
73973;PMS5003;62336;-26.094;27.994;2023-05-10T11:41:08;20;19;
73973;PMS5003;62336;-26.094;27.994;2023-05-10T11:43:32;22;22;
73973;PMS5003;62336;-26.094;27.994;2023-05-10T11:45:58;24;22;
73973;PMS5003;62336;-26.094;27.994;2023-05-10T11:48:23;22;21;
73973;PMS5003;62336;-26.094;27.994;2023-05-10T11:50:48;18;15;
73973;PMS5003;62336;-26.094;27.994;2023-05-10T11:53:14;18;18;
73973;PMS5003;62336;-26.094;27.994;2023-05-10T11:55:39;22;22;
73973;PMS5003;62336;-26.094;27.994;2023-05-10T11:58:04;20;19;
73973;PMS5003;62336;-26.094;27.994;2023-05-10T12:00:30;18;18;
73973;PMS5003;62336;-26.094;27.994;2023-05-10T12:02:55;20;20;
73973;PMS5003;62336;-26.094;27.994;2023-05-10T12:05:19;25;24;
73973;PMS5003;62336;-26.094;27.994;2023-05-10T12:07:46;21;21;
73973;PMS5003;62336;-26.094;27.994;2023-05-10T12:10:12;23;21;
73973;PMS5003;62336;-26.094;27.994;2023-05-10T12:12:37;19;17;
73973;PMS5003;62336;-26.094;27.994;2023-05-10T12:15:02;23;23;
73973;PMS5003;62336;-26.094;27.994;2023-05-10T12:17:27;22;20;
73973;PMS5003;62336;-26.094;27.994;2023-05-10T12:19:52;22;21;
73973;PMS5003;62336;-26.094;27.994;2023-05-10T12:22:20;23;23;
73973;PMS5003;62336;-26.094;27.994;2023-05-10T12:24:43;20;19;
73973;PMS5003;62336;-26.094;27.994;2023-05-10T12:27:09;21;20;
73973;PMS5003;62336;-26.094;27.994;2023-05-10T12:29:35;22;22;
73973;PMS5003;62336;-26.094;27.994;2023-05-10T12:31:59;19;19;
73973;PMS5003;62336;-26.094;27.994;2023-05-10T12:34:26;18;18;
73973;PMS5003;62336;-26.094;27.994;2023-05-10T12:36:50;18;17;
73973;PMS5003;62336;-26.094;27.994;2023-05-10T12:39:15;19;18;
73973;PMS5003;62336;-26.094;27.994;2023-05-10T12:41:41;19;18;
73973;PMS5003;62336;-26.094;27.994;2023-05-10T12:44:06;19;18;
73973;PMS5003;62336;-26.094;27.994;2023-05-10T12:46:32;21;20;
73973;PMS5003;62336;-26.094;27.994;2023-05-10T12:48:57;16;16;
73973;PMS5003;62336;-26.094;27.994;2023-05-10T12:51:23;16;14;
73973;PMS5003;62336;-26.094;27.994;2023-05-10T12:53:49;12;12;
73973;PMS5003;62336;-26.094;27.994;2023-05-10T12:56:14;15;15;
73973;PMS5003;62336;-26.094;27.994;2023-05-10T12:58:40;14;13;
73973;PMS5003;62336;-26.094;27.994;2023-05-10T13:01:05;14;14;
73973;PMS5003;62336;-26.094;27.994;2023-05-10T13:03:30;13;12;
73973;PMS5003;62336;-26.094;27.994;2023-05-10T13:05:55;16;16;
73973;PMS5003;62336;-26.094;27.994;2023-05-10T13:08:21;12;11;
73973;PMS5003;62336;-26.094;27.994;2023-05-10T13:10:47;12;12;
73973;PMS5003;62336;-26.094;27.994;2023-05-10T13:13:12;15;15;
73973;PMS5003;62336;-26.094;27.994;2023-05-10T13:15:38;17;14;
73973;PMS5003;62336;-26.094;27.994;2023-05-10T13:18:04;15;15;
73973;PMS5003;62336;-26.094;27.994;2023-05-10T13:20:29;15;15;
73973;PMS5003;62336;-26.094;27.994;2023-05-10T13:22:55;20;20;
73973;PMS5003;62336;-26.094;27.994;2023-05-10T13:25:20;14;14;
73973;PMS5003;62336;-26.094;27.994;2023-05-10T13:27:46;16;16;
73973;PMS5003;62336;-26.094;27.994;2023-05-10T13:30:11;18;17;
73973;PMS5003;62336;-26.094;27.994;2023-05-10T13:32:37;13;13;
73973;PMS5003;62336;-26.094;27.994;2023-05-10T13:35:03;15;15;
73973;PMS5003;62336;-26.094;27.994;2023-05-10T13:37:28;13;13;
73973;PMS5003;62336;-26.094;27.994;2023-05-10T13:39:53;10;10;
73973;PMS5003;62336;-26.094;27.994;2023-05-10T13:42:19;14;13;
73973;PMS5003;62336;-26.094;27.994;2023-05-10T13:44:44;14;14;
73973;PMS5003;62336;-26.094;27.994;2023-05-10T13:47:10;13;13;
73973;PMS5003;62336;-26.094;27.994;2023-05-10T13:49:36;15;15;
73973;PMS5003;62336;-26.094;27.994;2023-05-10T13:52:01;13;13;
73973;PMS5003;62336;-26.094;27.994;2023-05-10T13:54:26;14;14;
73973;PMS5003;62336;-26.094;27.994;2023-05-10T13:56:52;12;12;
73973;PMS5003;62336;-26.094;27.994;2023-05-10T13:59:18;15;13;
73973;PMS5003;62336;-26.094;27.994;2023-05-10T14:01:43;13;13;
73973;PMS5003;62336;-26.094;27.994;2023-05-10T14:04:09;17;17;
73973;PMS5003;62336;-26.094;27.994;2023-05-10T14:06:34;15;15;
73973;PMS5003;62336;-26.094;27.994;2023-05-10T14:08:59;15;14;
73973;PMS5003;62336;-26.094;27.994;2023-05-10T14:11:25;17;15;
73973;PMS5003;62336;-26.094;27.994;2023-05-10T14:13:50;21;21;
73973;PMS5003;62336;-26.094;27.994;2023-05-10T14:16:15;18;17;
73973;PMS5003;62336;-26.094;27.994;2023-05-10T14:18:42;15;15;
73973;PMS5003;62336;-26.094;27.994;2023-05-10T14:21:07;18;17;
73973;PMS5003;62336;-26.094;27.994;2023-05-10T14:23:32;17;17;
73973;PMS5003;62336;-26.094;27.994;2023-05-10T14:25:57;15;14;
73973;PMS5003;62336;-26.094;27.994;2023-05-10T14:28:22;18;16;
73973;PMS5003;62336;-26.094;27.994;2023-05-10T14:30:47;21;19;
73973;PMS5003;62336;-26.094;27.994;2023-05-10T14:33:13;18;17;
73973;PMS5003;62336;-26.094;27.994;2023-05-10T14:35:38;19;18;
73973;PMS5003;62336;-26.094;27.994;2023-05-10T14:38:04;18;16;
73973;PMS5003;62336;-26.094;27.994;2023-05-10T14:40:30;15;15;
73973;PMS5003;62336;-26.094;27.994;2023-05-10T14:42:56;21;20;
73973;PMS5003;62336;-26.094;27.994;2023-05-10T14:45:20;19;18;
73973;PMS5003;62336;-26.094;27.994;2023-05-10T14:47:45;19;18;
73973;PMS5003;62336;-26.094;27.994;2023-05-10T14:50:11;21;19;
73973;PMS5003;62336;-26.094;27.994;2023-05-10T14:52:36;18;18;
73973;PMS5003;62336;-26.094;27.994;2023-05-10T14:55:02;19;17;
73973;PMS5003;62336;-26.094;27.994;2023-05-10T14:57:27;21;20;
73973;PMS5003;62336;-26.094;27.994;2023-05-10T14:59:53;25;24;
73973;PMS5003;62336;-26.094;27.994;2023-05-10T15:02:18;23;21;
73973;PMS5003;62336;-26.094;27.994;2023-05-10T15:04:43;18;18;
73973;PMS5003;62336;-26.094;27.994;2023-05-10T15:07:08;22;21;
73973;PMS5003;62336;-26.094;27.994;2023-05-10T15:09:34;23;23;
73973;PMS5003;62336;-26.094;27.994;2023-05-10T15:11:59;21;19;
73973;PMS5003;62336;-26.094;27.994;2023-05-10T15:14:24;21;20;
73973;PMS5003;62336;-26.094;27.994;2023-05-10T15:16:50;19;19;
73973;PMS5003;62336;-26.094;27.994;2023-05-10T15:19:15;22;21;
73973;PMS5003;62336;-26.094;27.994;2023-05-10T15:21:41;22;21;
73973;PMS5003;62336;-26.094;27.994;2023-05-10T15:24:07;19;18;
73973;PMS5003;62336;-26.094;27.994;2023-05-10T15:26:32;25;24;
73973;PMS5003;62336;-26.094;27.994;2023-05-10T15:28:58;22;20;
73973;PMS5003;62336;-26.094;27.994;2023-05-10T15:31:22;22;20;
73973;PMS5003;62336;-26.094;27.994;2023-05-10T15:33:48;23;20;
73973;PMS5003;62336;-26.094;27.994;2023-05-10T15:36:13;24;23;
73973;PMS5003;62336;-26.094;27.994;2023-05-10T15:38:39;24;21;
73973;PMS5003;62336;-26.094;27.994;2023-05-10T15:41:04;21;20;
73973;PMS5003;62336;-26.094;27.994;2023-05-10T15:43:29;23;21;
73973;PMS5003;62336;-26.094;27.994;2023-05-10T15:45:55;36;35;